Time;durP1;ratioP1;P1;durP2;ratioP2;P2;SDS_P1;SDS_P2;PMS_P1;PMS_P2;Temp;Humidity;BMP_temperature;BMP_pressure;BME280_temperature;BME280_humidity;BME280_pressure;Samples;Min_cycle;Max_cycle;Signal;HPM_P1;HPM_P2
2022/02/26 00:02:14;;;;;;;8.98;4.47;;;179.20;2252.80;;;;;;5062323;28;20097;-76
2022/02/26 00:04:40;;;;;;;9.30;5.40;;;154.50;2252.80;;;;;;5053930;28;20056;-75
2022/02/26 00:07:07;;;;;;;8.85;4.40;;;154.50;2252.80;;;;;;5052352;28;20112;-76
2022/02/26 00:09:33;;;;;;;10.40;5.65;;;154.50;2252.80;;;;;;5058721;28;20380;-75
2022/02/26 00:11:59;;;;;;;9.05;5.07;;;154.50;2252.80;;;;;;5054433;28;20086;-75
2022/02/26 00:14:25;;;;;;;7.75;4.72;;;154.50;2252.80;;;;;;5053588;28;20353;-75
2022/02/26 00:16:50;;;;;;;8.50;5.40;;;154.50;2252.80;;;;;;5051963;28;20799;-75
2022/02/26 00:19:16;;;;;;;12.00;5.78;;;154.50;2252.80;;;;;;5052017;28;20037;-75
2022/02/26 00:21:42;;;;;;;10.95;5.90;;;154.50;2252.80;;;;;;5053060;28;20037;-75
2022/02/26 00:24:08;;;;;;;9.30;5.32;;;154.50;2252.80;;;;;;5058934;28;20025;-75
2022/02/26 00:26:34;;;;;;;9.88;5.75;;;179.20;2252.80;;;;;;5071239;28;20039;-75
2022/02/26 00:29:00;;;;;;;9.23;5.50;;;179.20;2252.80;;;;;;5071689;28;20024;-75
2022/02/26 00:31:26;;;;;;;10.65;6.03;;;179.20;2252.80;;;;;;5063254;28;20074;-75
2022/02/26 00:33:51;;;;;;;10.15;5.88;;;179.20;2252.80;;;;;;5073054;28;20103;-75
2022/02/26 00:36:17;;;;;;;8.43;5.57;;;179.20;2252.80;;;;;;5071801;28;20066;-75
2022/02/26 00:38:43;;;;;;;9.95;6.35;;;179.30;2252.80;;;;;;5071503;28;20033;-75
2022/02/26 00:41:09;;;;;;;7.50;4.85;;;179.20;2252.80;;;;;;5072696;28;20047;-75
2022/02/26 00:43:36;;;;;;;10.93;5.90;;;179.20;2252.80;;;;;;5072890;28;20048;-75
2022/02/26 00:46:03;;;;;;;11.27;6.63;;;179.20;2252.80;;;;;;5071809;28;20475;-75
2022/02/26 00:51:13;;;;;;;7.05;5.47;;;179.30;2252.80;;;;;;5072745;28;20050;-75
2022/02/26 00:53:39;;;;;;;8.52;6.22;;;179.30;2252.80;;;;;;5071450;28;20025;-75
2022/02/26 00:56:04;;;;;;;8.93;5.45;;;179.30;2252.80;;;;;;5069559;28;20042;-75
2022/02/26 00:58:30;;;;;;;8.68;5.97;;;179.30;2252.80;;;;;;5066365;28;20032;-75
2022/02/26 01:00:56;;;;;;;10.70;5.55;;;179.30;2252.80;;;;;;5062023;28;20036;-75
2022/02/26 01:03:22;;;;;;;8.73;6.00;;;179.30;2252.80;;;;;;5061638;28;20017;-75
2022/02/26 01:05:47;;;;;;;12.52;6.75;;;179.30;2252.80;;;;;;5054888;28;20460;-74
2022/02/26 01:08:13;;;;;;;7.47;5.40;;;179.30;2252.80;;;;;;5092850;28;20115;-76
2022/02/26 01:10:39;;;;;;;9.90;5.47;;;179.30;2252.80;;;;;;5066238;28;20055;-74
2022/02/26 01:13:04;;;;;;;9.77;5.57;;;179.20;2252.80;;;;;;5066637;28;20031;-74
2022/02/26 01:15:30;;;;;;;9.10;5.22;;;179.20;2252.80;;;;;;5070707;28;20450;-74
2022/02/26 01:17:56;;;;;;;9.43;5.40;;;179.30;2252.80;;;;;;5072717;28;20044;-74
2022/02/26 01:20:22;;;;;;;8.43;5.40;;;179.20;2252.80;;;;;;5086566;28;20033;-74
2022/02/26 01:22:47;;;;;;;9.65;6.55;;;179.30;2252.80;;;;;;5085925;28;20040;-74
2022/02/26 01:25:13;;;;;;;9.32;6.88;;;179.30;2252.80;;;;;;5092415;28;20023;-74
2022/02/26 01:27:39;;;;;;;10.32;6.15;;;179.20;2252.80;;;;;;5092403;28;20027;-73
2022/02/26 01:30:09;;;;;;;8.30;5.10;;;179.20;2252.80;;;;;;5092572;28;20020;-74
2022/02/26 01:32:35;;;;;;;8.82;5.45;;;179.30;2252.80;;;;;;5108172;28;20028;-74
2022/02/26 01:35:02;;;;;;;8.25;6.32;;;179.20;2252.80;;;;;;5092622;28;20429;-74
2022/02/26 01:37:28;;;;;;;8.55;5.88;;;179.30;2252.80;;;;;;5107250;28;20198;-74
2022/02/26 01:39:53;;;;;;;7.88;5.70;;;179.30;2252.80;;;;;;5092557;28;20520;-74
2022/02/26 01:42:21;;;;;;;9.85;6.03;;;179.30;2252.80;;;;;;5092107;28;20368;-74
2022/02/26 01:44:52;;;;;;;7.90;6.10;;;179.30;2252.80;;;;;;5092402;28;20674;-74
2022/02/26 01:47:18;;;;;;;10.93;6.75;;;179.30;2252.80;;;;;;5108643;28;20020;-74
2022/02/26 01:49:44;;;;;;;9.23;6.78;;;179.30;2252.80;;;;;;5107925;28;20090;-74
2022/02/26 01:52:11;;;;;;;9.80;6.47;;;179.30;2252.80;;;;;;5084029;28;20028;-73
2022/02/26 01:54:37;;;;;;;8.70;6.22;;;179.30;2252.80;;;;;;5089813;28;20032;-75
2022/02/26 01:57:04;;;;;;;10.18;6.00;;;179.30;2252.80;;;;;;5091209;28;20031;-74
2022/02/26 01:59:30;;;;;;;7.78;5.93;;;179.20;2252.80;;;;;;5091033;28;20114;-74
2022/02/26 02:01:56;;;;;;;10.48;6.20;;;179.20;2252.80;;;;;;5106647;28;20664;-74
2022/02/26 02:04:22;;;;;;;12.48;6.00;;;179.20;2252.80;;;;;;5092091;28;20030;-74
2022/02/26 02:06:47;;;;;;;11.35;6.07;;;179.20;2252.80;;;;;;5092202;28;20107;-74
2022/02/26 02:09:13;;;;;;;8.55;5.72;;;179.20;2252.80;;;;;;5110070;28;20020;-74
2022/02/26 02:11:39;;;;;;;11.48;6.38;;;179.20;2252.80;;;;;;5111271;28;20448;-74
2022/02/26 02:14:06;;;;;;;9.63;6.50;;;179.20;2252.80;;;;;;5111201;28;20031;-74
2022/02/26 02:16:34;;;;;;;9.82;5.70;;;154.50;2252.80;;;;;;5095860;28;20059;-74
2022/02/26 02:19:07;;;;;;;9.38;5.80;;;154.50;2252.80;;;;;;5095921;28;20028;-74
2022/02/26 02:21:33;;;;;;;7.40;5.70;;;154.50;2252.80;;;;;;5111289;28;20143;-74
2022/02/26 02:23:59;;;;;;;9.40;6.15;;;154.40;2252.80;;;;;;5094475;28;20115;-74
2022/02/26 02:26:27;;;;;;;6.85;4.95;;;154.40;2252.80;;;;;;5095658;28;20023;-74
2022/02/26 02:28:53;;;;;;;13.07;6.13;;;154.40;2252.80;;;;;;5095697;28;20804;-75
2022/02/26 02:31:19;;;;;;;8.05;5.20;;;154.40;2252.80;;;;;;5095976;28;20036;-74
2022/02/26 02:33:46;;;;;;;7.70;4.95;;;154.40;2252.80;;;;;;5095215;28;20559;-74
2022/02/26 02:36:12;;;;;;;11.40;6.63;;;154.30;2252.80;;;;;;5111286;28;20031;-75
2022/02/26 02:38:39;;;;;;;12.60;6.72;;;154.30;2252.80;;;;;;5094909;28;20040;-74
2022/02/26 02:41:04;;;;;;;8.95;6.03;;;154.30;2252.80;;;;;;5095614;28;20081;-74
2022/02/26 02:43:30;;;;;;;7.65;5.30;;;154.20;2252.80;;;;;;5110893;28;20405;-74
2022/02/26 02:45:57;;;;;;;9.07;6.40;;;154.10;2252.80;;;;;;5093614;28;20036;-74
2022/02/26 02:48:22;;;;;;;8.90;6.13;;;154.10;2252.80;;;;;;5094055;28;20021;-74
2022/02/26 02:50:48;;;;;;;11.20;8.27;;;154.10;2252.80;;;;;;5109710;28;20533;-74
2022/02/26 02:53:16;;;;;;;10.45;7.28;;;154.10;2252.80;;;;;;5070797;28;20506;-74
2022/02/26 02:55:43;;;;;;;10.98;6.53;;;154.10;2252.80;;;;;;5074653;28;20036;-74
2022/02/26 02:58:09;;;;;;;9.75;7.05;;;154.10;2252.80;;;;;;5073450;28;20032;-74
2022/02/26 03:00:35;;;;;;;10.55;7.53;;;154.00;2252.80;;;;;;5071196;28;20021;-75
2022/02/26 03:03:01;;;;;;;9.85;7.57;;;154.00;2252.80;;;;;;5073439;28;20016;-74
2022/02/26 03:05:27;;;;;;;9.38;5.95;;;154.00;2252.80;;;;;;5074234;28;20031;-74
2022/02/26 03:07:53;;;;;;;8.82;6.82;;;154.00;2252.80;;;;;;5075068;28;20036;-74
2022/02/26 03:10:20;;;;;;;11.02;6.78;;;154.00;2252.80;;;;;;5074704;28;20074;-74
2022/02/26 03:12:51;;;;;;;8.60;6.82;;;153.90;2252.80;;;;;;5074880;28;20021;-74
2022/02/26 03:15:19;;;;;;;11.35;7.32;;;153.80;2252.80;;;;;;5068820;28;20495;-74
2022/02/26 03:17:45;;;;;;;10.50;6.50;;;153.80;2252.80;;;;;;5054409;28;20037;-74
2022/02/26 03:20:11;;;;;;;11.32;7.53;;;153.80;2252.80;;;;;;5054218;28;20039;-75
2022/02/26 03:22:36;;;;;;;9.93;6.30;;;153.80;2252.80;;;;;;5053193;28;20494;-75
2022/02/26 03:25:03;;;;;;;9.45;6.18;;;153.80;2252.80;;;;;;5053389;28;20063;-74
2022/02/26 03:27:28;;;;;;;13.18;6.95;;;153.80;2252.80;;;;;;5053109;28;20104;-74
2022/02/26 03:29:54;;;;;;;11.45;6.95;;;153.80;2252.80;;;;;;5054656;28;20101;-74
2022/02/26 03:32:20;;;;;;;10.20;6.50;;;153.80;2252.80;;;;;;5052937;28;20044;-74
2022/02/26 03:34:46;;;;;;;10.70;6.95;;;153.80;2252.80;;;;;;5054159;28;20025;-74
2022/02/26 03:37:12;;;;;;;12.20;8.02;;;153.80;2252.80;;;;;;5054010;28;20049;-74
2022/02/26 03:39:38;;;;;;;11.93;7.60;;;153.80;2252.80;;;;;;5054204;28;20483;-76
2022/02/26 03:42:06;;;;;;;14.98;7.72;;;153.60;2252.80;;;;;;5054043;28;20100;-73
2022/02/26 03:44:33;;;;;;;11.57;7.70;;;153.70;2252.80;;;;;;5054060;28;20048;-73
2022/02/26 03:47:00;;;;;;;12.35;8.20;;;153.70;2252.80;;;;;;5052899;28;20025;-74
2022/02/26 03:49:26;;;;;;;11.65;8.80;;;153.70;2252.80;;;;;;5054093;28;20096;-74
2022/02/26 03:51:52;;;;;;;12.43;7.53;;;153.60;2252.80;;;;;;5054385;28;20051;-74
2022/02/26 03:54:18;;;;;;;11.25;7.80;;;153.60;2252.80;;;;;;5053763;28;20033;-74
2022/02/26 03:56:44;;;;;;;13.95;8.10;;;153.60;2252.80;;;;;;5053994;28;20665;-73
2022/02/26 03:59:10;;;;;;;11.75;7.82;;;153.70;2252.80;;;;;;5053221;28;20029;-74
2022/02/26 04:01:36;;;;;;;11.77;7.97;;;153.60;2252.80;;;;;;5053806;28;20025;-73
2022/02/26 04:04:03;;;;;;;16.30;8.32;;;153.60;2252.80;;;;;;5051869;28;20392;-73
2022/02/26 04:06:28;;;;;;;11.05;8.02;;;153.60;2252.80;;;;;;5052014;28;20056;-73
2022/02/26 04:08:54;;;;;;;12.27;7.68;;;153.60;2252.80;;;;;;5053433;28;20064;-73
2022/02/26 04:11:20;;;;;;;11.82;8.27;;;153.60;2252.80;;;;;;5052237;28;20025;-74
2022/02/26 04:13:46;;;;;;;12.57;9.38;;;153.60;2252.80;;;;;;5053708;28;20025;-75
2022/02/26 04:16:12;;;;;;;14.10;8.48;;;153.60;2252.80;;;;;;5053140;28;20092;-74
2022/02/26 04:18:38;;;;;;;12.32;8.02;;;153.60;2252.80;;;;;;5052334;28;20036;-74
2022/02/26 04:21:03;;;;;;;9.93;8.07;;;153.60;2252.80;;;;;;5051713;28;20387;-73
2022/02/26 04:23:29;;;;;;;11.65;7.30;;;153.60;2252.80;;;;;;5052158;28;20021;-73
2022/02/26 04:25:55;;;;;;;13.05;8.13;;;153.60;2252.80;;;;;;5052101;28;20021;-73
2022/02/26 04:28:21;;;;;;;12.23;8.15;;;153.60;2252.80;;;;;;5051780;28;20052;-74
2022/02/26 04:30:48;;;;;;;12.30;8.35;;;153.60;2252.80;;;;;;5056464;28;20142;-73
2022/02/26 04:33:14;;;;;;;12.77;8.85;;;153.60;2252.80;;;;;;5071207;28;20038;-73
2022/02/26 04:35:40;;;;;;;12.30;8.75;;;153.60;2252.80;;;;;;5071708;28;20028;-74
2022/02/26 04:38:06;;;;;;;11.90;7.88;;;153.60;2252.80;;;;;;5071227;28;20369;-74
2022/02/26 04:40:32;;;;;;;14.30;8.70;;;153.60;2252.80;;;;;;5073034;28;20379;-73
2022/02/26 04:42:58;;;;;;;14.18;9.65;;;153.60;2252.80;;;;;;5071553;28;20491;-73
2022/02/26 04:45:26;;;;;;;15.65;9.55;;;153.60;2252.80;;;;;;5071814;28;20055;-74
2022/02/26 04:47:52;;;;;;;15.80;10.02;;;153.60;2252.80;;;;;;5071537;28;20032;-73
2022/02/26 04:50:18;;;;;;;13.13;9.10;;;153.60;2252.80;;;;;;5071690;28;20028;-74
2022/02/26 04:52:45;;;;;;;16.23;9.05;;;153.60;2252.80;;;;;;5072729;28;20797;-74
2022/02/26 04:55:12;;;;;;;15.60;10.50;;;153.60;2252.80;;;;;;5072850;28;20027;-73
2022/02/26 04:57:39;;;;;;;13.90;8.75;;;153.60;2252.80;;;;;;5071402;28;20028;-73
2022/02/26 05:00:07;;;;;;;12.00;9.00;;;153.60;2252.80;;;;;;5071315;28;20048;-73
2022/02/26 05:02:33;;;;;;;13.93;9.20;;;153.60;2252.80;;;;;;5071419;28;20012;-73
2022/02/26 05:04:58;;;;;;;13.27;9.35;;;153.60;2252.80;;;;;;5071667;28;20035;-74
2022/02/26 05:07:24;;;;;;;14.85;8.43;;;153.60;2252.80;;;;;;5072156;28;20032;-73
2022/02/26 05:09:50;;;;;;;14.82;8.45;;;153.60;2252.80;;;;;;5072391;28;20159;-73
2022/02/26 05:12:16;;;;;;;13.70;9.05;;;153.60;2252.80;;;;;;5070971;28;20123;-73
2022/02/26 05:14:42;;;;;;;12.27;7.60;;;153.70;2252.80;;;;;;5071915;28;20035;-73
2022/02/26 05:17:08;;;;;;;11.07;8.20;;;153.70;2252.80;;;;;;5070190;28;20032;-73
2022/02/26 05:19:34;;;;;;;12.40;8.02;;;153.70;2252.80;;;;;;5072388;28;20480;-73
2022/02/26 05:22:00;;;;;;;15.00;8.38;;;153.80;2252.80;;;;;;5072037;28;20028;-73
2022/02/26 05:24:26;;;;;;;12.13;8.20;;;153.80;2252.80;;;;;;5070706;28;20119;-73
2022/02/26 05:26:52;;;;;;;12.63;9.05;;;153.80;2252.80;;;;;;5070711;28;20056;-74
2022/02/26 05:29:19;;;;;;;11.40;7.85;;;153.80;2252.80;;;;;;5072351;28;20021;-73
2022/02/26 05:31:45;;;;;;;12.00;7.15;;;153.90;2252.80;;;;;;5072376;28;20043;-73
2022/02/26 05:34:11;;;;;;;12.63;8.27;;;153.90;2252.80;;;;;;5072182;28;20021;-74
2022/02/26 05:36:37;;;;;;;11.75;7.55;;;153.90;2252.80;;;;;;5070237;28;20044;-73
2022/02/26 05:39:04;;;;;;;13.68;9.68;;;153.90;2252.80;;;;;;5070933;28;20028;-73
2022/02/26 05:41:30;;;;;;;10.43;9.00;;;153.90;2252.80;;;;;;5072062;28;20031;-74
2022/02/26 05:43:55;;;;;;;11.02;8.15;;;154.00;2252.80;;;;;;5078239;28;20028;-73
2022/02/26 05:46:21;;;;;;;14.25;8.70;;;154.00;2252.80;;;;;;5077471;28;20032;-73
2022/02/26 05:48:47;;;;;;;13.18;8.88;;;154.00;2252.80;;;;;;5077635;28;20529;-73
2022/02/26 05:51:14;;;;;;;11.93;7.95;;;154.00;2252.80;;;;;;5078584;28;20028;-73
2022/02/26 05:53:40;;;;;;;17.55;10.18;;;154.10;2252.80;;;;;;5078739;28;20020;-73
2022/02/26 05:56:06;;;;;;;15.70;9.38;;;154.10;2252.80;;;;;;5077688;28;20017;-73
2022/02/26 05:58:32;;;;;;;12.35;8.25;;;154.10;2252.80;;;;;;5078666;28;20103;-73
2022/02/26 06:00:58;;;;;;;14.80;8.98;;;154.10;2252.80;;;;;;5074148;28;20511;-74
2022/02/26 06:03:23;;;;;;;14.65;8.95;;;154.10;2252.80;;;;;;5070660;28;20377;-74
2022/02/26 06:05:49;;;;;;;13.98;8.32;;;154.20;2252.80;;;;;;5065900;28;20028;-74
2022/02/26 06:08:15;;;;;;;15.55;10.88;;;154.20;2252.80;;;;;;5072812;28;20368;-74
2022/02/26 06:10:41;;;;;;;13.07;8.20;;;154.10;2252.80;;;;;;5070235;28;20036;-73
2022/02/26 06:13:06;;;;;;;19.10;8.52;;;154.20;2252.80;;;;;;5066900;28;20091;-73
2022/02/26 06:15:32;;;;;;;18.65;10.77;;;154.20;2252.80;;;;;;5065808;28;20044;-73
2022/02/26 06:17:58;;;;;;;15.90;10.20;;;154.20;2252.80;;;;;;5068170;28;20036;-74
2022/02/26 06:20:24;;;;;;;18.23;10.20;;;154.20;2252.80;;;;;;5065239;28;20071;-73
2022/02/26 06:22:50;;;;;;;16.80;10.10;;;154.20;2252.80;;;;;;5069791;28;20634;-74
2022/02/26 06:25:16;;;;;;;16.98;9.40;;;154.30;2252.80;;;;;;5067705;28;20017;-74
2022/02/26 06:27:43;;;;;;;16.00;10.10;;;154.30;2252.80;;;;;;5057236;28;20017;-73
2022/02/26 06:30:10;;;;;;;15.93;9.63;;;154.40;2252.80;;;;;;5062626;28;20114;-75
2022/02/26 06:32:37;;;;;;;13.18;9.63;;;154.40;2252.80;;;;;;5073254;28;20056;-73
2022/02/26 06:35:05;;;;;;;13.10;8.50;;;154.40;2252.80;;;;;;5072532;28;20029;-73
2022/02/26 06:37:30;;;;;;;14.57;9.13;;;154.40;2252.80;;;;;;5059591;28;20053;-73
2022/02/26 06:39:56;;;;;;;12.25;7.43;;;154.50;2252.80;;;;;;5057126;28;20422;-73
2022/02/26 06:42:22;;;;;;;12.48;8.10;;;179.20;2252.80;;;;;;5056328;28;20124;-73
2022/02/26 06:44:48;;;;;;;12.70;8.65;;;179.20;2252.80;;;;;;5058555;28;20412;-73
2022/02/26 06:47:14;;;;;;;13.48;7.30;;;179.20;2252.80;;;;;;5064762;28;20028;-73
2022/02/26 06:49:39;;;;;;;12.45;6.82;;;179.30;2252.80;;;;;;5062645;28;20474;-75
2022/02/26 06:52:06;;;;;;;13.68;7.88;;;179.40;2252.80;;;;;;5073754;28;20127;-75
2022/02/26 06:54:32;;;;;;;10.60;6.78;;;179.40;2252.80;;;;;;5074408;28;20040;-73
2022/02/26 06:56:59;;;;;;;11.02;8.25;;;179.30;2252.80;;;;;;5073761;28;20028;-73
2022/02/26 06:59:28;;;;;;;16.38;8.30;;;179.40;2252.80;;;;;;5073862;28;20535;-73
2022/02/26 07:01:54;;;;;;;12.00;8.18;;;179.50;2252.80;;;;;;5074700;28;20555;-72
2022/02/26 07:04:20;;;;;;;15.48;8.18;;;179.50;2252.80;;;;;;5073160;28;20020;-75
2022/02/26 07:06:46;;;;;;;10.43;7.07;;;179.50;2252.80;;;;;;5072377;28;20368;-74
2022/02/26 07:09:14;;;;;;;14.60;7.63;;;179.50;2252.80;;;;;;5074063;28;20082;-73
2022/02/26 07:11:41;;;;;;;14.48;9.27;;;179.50;2252.80;;;;;;5074844;28;20017;-75
2022/02/26 07:14:08;;;;;;;17.25;13.05;;;179.60;2252.80;;;;;;5054983;28;20033;-74
2022/02/26 07:16:34;;;;;;;11.27;7.18;;;179.70;2252.80;;;;;;5059142;28;20052;-75
2022/02/26 07:19:03;;;;;;;10.70;7.22;;;179.70;2252.80;;;;;;5055628;28;20025;-73
2022/02/26 07:21:28;;;;;;;11.23;7.13;;;179.70;2252.80;;;;;;5054821;28;20056;-75
2022/02/26 07:23:56;;;;;;;10.07;6.78;;;179.70;2252.80;;;;;;5063200;28;20056;-74
2022/02/26 07:26:22;;;;;;;10.73;7.10;;;179.70;2252.80;;;;;;5066146;28;20384;-74
2022/02/26 07:28:48;;;;;;;13.43;7.22;;;179.70;2252.80;;;;;;5062723;28;20029;-74
2022/02/26 07:31:14;;;;;;;13.00;7.45;;;179.80;2252.80;;;;;;5071366;28;20534;-74
2022/02/26 07:33:39;;;;;;;11.23;6.72;;;179.80;2252.80;;;;;;5068200;28;20035;-74
2022/02/26 07:36:06;;;;;;;12.48;7.05;;;179.80;2252.80;;;;;;5064099;28;20032;-74
2022/02/26 07:38:32;;;;;;;8.60;6.70;;;179.80;2252.80;;;;;;5065336;28;20094;-74
2022/02/26 07:40:58;;;;;;;12.90;8.52;;;179.80;2252.80;;;;;;5064373;28;20115;-74
2022/02/26 07:43:23;;;;;;;12.52;8.25;;;179.90;2252.80;;;;;;5060879;28;20045;-73
2022/02/26 07:45:49;;;;;;;15.45;8.77;;;180.00;2252.80;;;;;;5066869;28;20477;-74
2022/02/26 07:48:15;;;;;;;16.10;8.90;;;180.00;2252.80;;;;;;5063535;28;20020;-74
2022/02/26 07:50:41;;;;;;;11.43;8.13;;;180.00;2252.80;;;;;;5069373;28;20020;-73
2022/02/26 07:53:07;;;;;;;15.02;9.98;;;204.80;2252.80;;;;;;5062720;28;20040;-74
2022/02/26 07:55:34;;;;;;;12.32;8.32;;;204.80;2252.80;;;;;;5060239;28;20614;-74
2022/02/26 07:58:01;;;;;;;14.20;9.85;;;204.90;2252.80;;;;;;5069113;28;20058;-74
2022/02/26 08:00:27;;;;;;;13.35;8.38;;;204.90;2252.80;;;;;;5065134;28;20036;-74
2022/02/26 08:02:53;;;;;;;17.48;9.55;;;205.00;2252.80;;;;;;5064991;28;20031;-74
2022/02/26 08:05:19;;;;;;;13.23;8.15;;;205.10;2252.80;;;;;;5063554;28;20037;-74
2022/02/26 08:07:47;;;;;;;14.32;9.60;;;205.10;2252.80;;;;;;5064740;28;20025;-74
2022/02/26 08:10:13;;;;;;;13.63;10.90;;;205.10;2252.80;;;;;;5066228;28;20029;-74
2022/02/26 08:12:40;;;;;;;12.13;7.90;;;205.00;2252.80;;;;;;5066611;28;20032;-74
2022/02/26 08:15:06;;;;;;;14.90;7.45;;;205.00;2252.80;;;;;;5065127;28;20017;-74
2022/02/26 08:17:32;;;;;;;11.35;8.48;;;205.00;2252.80;;;;;;5060390;28;20533;-75
2022/02/26 08:19:58;;;;;;;12.93;8.43;;;205.00;2252.80;;;;;;5065833;28;20032;-74
2022/02/26 08:22:24;;;;;;;10.93;7.68;;;205.10;2252.80;;;;;;5066543;28;20082;-74
2022/02/26 08:24:49;;;;;;;10.60;7.65;;;205.00;2252.80;;;;;;5060960;28;20028;-74
2022/02/26 08:27:15;;;;;;;14.50;6.75;;;204.90;2252.80;;;;;;5051703;28;20388;-74
2022/02/26 08:29:41;;;;;;;11.35;6.43;;;204.90;2252.80;;;;;;5061126;28;20047;-75
2022/02/26 08:32:08;;;;;;;12.43;7.47;;;204.90;2252.80;;;;;;5053949;28;20119;-75
2022/02/26 08:34:34;;;;;;;15.35;7.22;;;205.00;2252.80;;;;;;5060084;28;20031;-75
2022/02/26 08:37:00;;;;;;;12.13;7.93;;;205.10;2252.80;;;;;;5062237;28;20128;-74
2022/02/26 08:39:25;;;;;;;14.20;8.15;;;205.10;2252.80;;;;;;5064529;28;20039;-75
2022/02/26 08:41:52;;;;;;;14.45;7.32;;;205.10;2252.80;;;;;;5062933;28;20029;-75
2022/02/26 08:44:18;;;;;;;11.88;7.18;;;205.20;2252.80;;;;;;5063905;28;20040;-76
2022/02/26 08:46:43;;;;;;;13.93;8.02;;;205.30;2252.80;;;;;;5071377;28;20391;-75
2022/02/26 08:49:09;;;;;;;13.23;8.00;;;205.30;2252.80;;;;;;5071488;28;20020;-75
2022/02/26 08:51:35;;;;;;;11.70;7.05;;;205.30;2252.80;;;;;;5072158;28;20044;-75
2022/02/26 08:54:01;;;;;;;9.13;7.10;;;205.40;2252.80;;;;;;5071653;28;20494;-75
2022/02/26 08:56:27;;;;;;;10.70;5.95;;;205.40;2252.80;;;;;;5072736;28;20117;-75
2022/02/26 08:58:54;;;;;;;11.50;7.25;;;205.60;2252.80;;;;;;5088288;28;20194;-75
2022/02/26 09:01:20;;;;;;;13.30;8.20;;;205.60;2252.80;;;;;;5071152;28;20024;-75
2022/02/26 09:03:48;;;;;;;17.30;10.00;;;205.60;2252.80;;;;;;5071404;28;20025;-75
2022/02/26 09:06:13;;;;;;;18.73;10.65;;;205.60;2252.80;;;;;;5072533;28;20031;-75
2022/02/26 09:08:39;;;;;;;12.10;8.57;;;230.40;2252.80;;;;;;5072665;28;20028;-75
2022/02/26 09:11:06;;;;;;;14.73;10.10;;;230.50;2252.80;;;;;;5072513;28;20024;-75
2022/02/26 09:13:34;;;;;;;12.23;8.48;;;230.50;2252.80;;;;;;5071269;28;20488;-75
2022/02/26 09:15:59;;;;;;;13.90;8.60;;;205.70;2252.80;;;;;;5071064;28;20119;-75
2022/02/26 09:18:26;;;;;;;13.05;9.13;;;230.40;2252.80;;;;;;5072037;28;20067;-75
2022/02/26 09:20:52;;;;;;;11.93;8.15;;;230.50;2252.80;;;;;;5071088;28;20039;-75
2022/02/26 09:23:18;;;;;;;12.90;8.90;;;230.40;2252.80;;;;;;5070877;28;20028;-75
2022/02/26 09:25:43;;;;;;;18.80;7.97;;;230.60;2252.80;;;;;;5072489;28;20040;-75
2022/02/26 09:28:09;;;;;;;14.38;8.90;;;230.80;2252.80;;;;;;5072336;28;20044;-76
2022/02/26 09:30:35;;;;;;;15.15;8.75;;;230.80;2252.80;;;;;;5071227;28;20050;-75
2022/02/26 09:33:01;;;;;;;12.30;7.60;;;230.80;2252.80;;;;;;5070656;28;20029;-75
2022/02/26 09:35:27;;;;;;;13.10;7.13;;;230.80;2252.80;;;;;;5070917;28;20036;-75
2022/02/26 09:37:54;;;;;;;10.07;6.63;;;230.70;2252.80;;;;;;5072008;28;20057;-75
2022/02/26 09:40:20;;;;;;;8.82;7.15;;;230.80;2252.80;;;;;;5072226;28;20096;-75
2022/02/26 09:42:46;;;;;;;11.90;6.90;;;230.80;2252.80;;;;;;5071083;28;20539;-75
2022/02/26 09:45:12;;;;;;;11.52;6.97;;;230.90;2252.80;;;;;;5087135;28;20024;-75
2022/02/26 09:47:37;;;;;;;7.68;5.35;;;230.90;2252.80;;;;;;5071155;28;20054;-76
2022/02/26 09:50:05;;;;;;;16.00;6.47;;;230.80;2252.80;;;;;;5053184;28;20029;-76
2022/02/26 09:52:39;;;;;;;10.77;6.15;;;231.00;2252.80;;;;;;5052124;28;20491;-75
2022/02/26 09:55:06;;;;;;;10.52;7.53;;;231.10;2252.80;;;;;;5050728;28;20079;-75
2022/02/26 09:57:32;;;;;;;13.13;8.88;;;231.30;2252.80;;;;;;5052192;28;20492;-75
2022/02/26 09:59:58;;;;;;;14.55;7.15;;;256.30;2252.80;;;;;;5051867;28;20047;-75
2022/02/26 10:02:35;;;;;;;9.60;6.70;;;256.50;2252.80;;;;;;5051799;28;20029;-75
2022/02/26 10:05:03;;;;;;;16.52;8.48;;;256.50;2252.80;;;;;;5050484;28;20123;-75
2022/02/26 10:07:33;;;;;;;47.67;10.57;;;256.80;2252.80;;;;;;5050519;28;20025;-75
2022/02/26 10:09:59;;;;;;;8.57;4.78;;;256.60;2252.80;;;;;;5051700;28;20035;-75
2022/02/26 10:15:45;;;;;;;7.47;5.20;;;256.60;2252.80;;;;;;5066015;28;20036;-75
2022/02/26 10:18:12;;;;;;;9.40;6.85;;;256.50;2252.80;;;;;;5071565;28;20059;-75
2022/02/26 10:20:46;;;;;;;10.90;7.00;;;256.60;2252.80;;;;;;5070601;28;20406;-75
2022/02/26 10:23:14;;;;;;;6.47;5.05;;;256.60;2252.80;;;;;;5071854;28;20027;-75
2022/02/26 10:25:40;;;;;;;6.97;5.03;;;256.30;2252.80;;;;;;5069685;28;20067;-76
2022/02/26 10:28:11;;;;;;;9.68;5.30;;;256.10;2252.80;;;;;;5071366;28;20415;-75
2022/02/26 10:30:45;;;;;;;13.35;6.32;;;256.20;2252.80;;;;;;5074499;28;20032;-73
2022/02/26 10:33:23;;;;;;;13.18;7.65;;;256.30;2252.80;;;;;;5067190;28;20031;-75
2022/02/26 10:35:54;;;;;;;7.45;5.93;;;256.30;2252.80;;;;;;5063851;28;20029;-75
2022/02/26 10:38:27;;;;;;;10.93;6.43;;;256.10;2252.80;;;;;;5073048;28;20059;-75
2022/02/26 10:41:08;;;;;;;8.20;5.95;;;256.20;2252.80;;;;;;5076526;28;20036;-76
2022/02/26 10:43:50;;;;;;;14.07;6.55;;;256.20;2252.80;;;;;;5074008;28;20017;-76
2022/02/26 10:46:29;;;;;;;12.43;6.70;;;256.10;2252.80;;;;;;5075441;28;20038;-76
2022/02/26 10:49:04;;;;;;;10.25;5.95;;;256.10;2252.80;;;;;;5075560;28;20504;-76
2022/02/26 10:51:32;;;;;;;11.70;7.63;;;256.20;2252.80;;;;;;5068941;28;20036;-76
2022/02/26 10:54:02;;;;;;;40.28;18.30;;;256.30;2252.80;;;;;;5053549;28;20029;-75
2022/02/26 10:56:38;;;;;;;61.25;28.60;;;256.70;2252.80;;;;;;5066241;28;20459;-76
2022/02/26 10:59:07;;;;;;;43.92;22.83;;;256.80;2252.80;;;;;;5073950;28;20483;-76
2022/02/26 11:01:33;;;;;;;11.98;7.72;;;256.80;2252.80;;;;;;5072065;28;20397;-76
2022/02/26 11:04:01;;;;;;;15.73;7.38;;;256.70;2252.80;;;;;;5066907;28;20084;-76
2022/02/26 11:06:28;;;;;;;11.95;6.53;;;256.50;2252.80;;;;;;5068455;28;20116;-76
2022/02/26 11:08:54;;;;;;;8.77;5.78;;;256.30;2252.80;;;;;;5066199;28;20384;-76
2022/02/26 11:11:25;;;;;;;12.25;7.85;;;256.10;2252.80;;;;;;5068274;28;20031;-76
2022/02/26 11:13:56;;;;;;;12.63;9.23;;;256.20;2252.80;;;;;;5062698;28;20061;-76
2022/02/26 11:16:23;;;;;;;17.38;10.45;;;256.30;2252.80;;;;;;5065764;28;20029;-76
2022/02/26 11:18:53;;;;;;;13.27;5.97;;;256.20;2252.80;;;;;;5065455;28;20116;-76
2022/02/26 11:21:20;;;;;;;8.25;6.68;;;256.00;2252.80;;;;;;5063195;28;20029;-77
2022/02/26 11:23:50;;;;;;;12.15;8.82;;;256.00;2252.80;;;;;;5062325;28;20074;-76
2022/02/26 11:26:21;;;;;;;12.27;7.35;;;231.30;2252.80;;;;;;5062935;28;20036;-75
2022/02/26 11:28:54;;;;;;;8.95;7.93;;;231.30;2252.80;;;;;;5064901;28;20048;-76
2022/02/26 11:31:32;;;;;;;15.00;9.10;;;231.30;2252.80;;;;;;5064669;28;20049;-76
2022/02/26 11:33:58;;;;;;;16.42;9.77;;;256.00;2252.80;;;;;;5061987;28;20041;-76
2022/02/26 11:37:04;;;;;;;22.08;12.40;;;256.00;2252.80;;;;;;5069959;28;20029;-76
2022/02/26 11:39:37;;;;;;;23.00;12.30;;;256.00;2252.80;;;;;;5063234;28;20036;-75
2022/02/26 11:42:27;;;;;;;13.55;7.20;;;256.00;2252.80;;;;;;5064711;28;20024;-75
2022/02/26 11:44:57;;;;;;;13.10;7.13;;;231.30;2252.80;;;;;;5065722;28;20476;-75
2022/02/26 11:47:31;;;;;;;9.52;6.13;;;231.10;2252.80;;;;;;5071967;28;20115;-76
2022/02/26 11:50:04;;;;;;;14.85;6.88;;;231.10;2252.80;;;;;;5066208;28;20098;-77
2022/02/26 11:52:50;;;;;;;10.80;7.28;;;231.10;2252.80;;;;;;5060503;28;20028;-75
2022/02/26 11:55:28;;;;;;;8.90;5.88;;;231.20;2252.80;;;;;;5060391;28;20108;-75
2022/02/26 11:57:57;;;;;;;8.43;4.90;;;231.10;2252.80;;;;;;5063527;28;20029;-74
2022/02/26 12:00:23;;;;;;;6.65;5.13;;;231.10;2252.80;;;;;;5062714;28;20035;-74
2022/02/26 12:03:18;;;;;;;10.65;5.07;;;231.10;2252.80;;;;;;5071864;28;20480;-75
2022/02/26 12:05:45;;;;;;;13.35;8.30;;;231.10;2252.80;;;;;;5056974;28;20041;-74
2022/02/26 12:08:12;;;;;;;14.32;8.80;;;231.20;2252.80;;;;;;5066290;28;20388;-75
2022/02/26 12:10:52;;;;;;;14.43;6.25;;;231.30;2252.80;;;;;;5066126;28;20029;-75
2022/02/26 12:13:46;;;;;;;6.97;4.75;;;231.30;2252.80;;;;;;5065905;28;20064;-72
2022/02/26 12:16:21;;;;;;;7.70;4.95;;;231.20;2252.80;;;;;;5063374;28;20373;-72
2022/02/26 12:18:58;;;;;;;12.45;5.35;;;231.20;2252.80;;;;;;5071199;28;20048;-73